ZYTX/SHE METAR and TAF weather

Enter ICAO airport designator
Station Type Date Time Source
ZYTX METAR 2021/09/24 04:00 UTC NOAA

ZYTX 240400Z VRB01MPS CAVOK 22/15 Q1023 NOSIG


Station Type Date Time Source
ZYTX Decoded METAR 2021/09/24 04:00 UTC NOAA

Shenyang / Taokian, China (ZYTX) 41-48N 123-24E
Sep 24, 2021 - 12:00 AM EDT / 2021.09.24 0400 UTC
Wind: Variable at 2 MPH (2 KT):0
Visibility: greater than 7 mile(s):0
Temperature: 71 F (22 C)
Dew Point: 59 F (15 C)
Relative Humidity: 64%
Pressure (altimeter): 30.21 in. Hg (1023 hPa)
ob: ZYTX 240400Z VRB01MPS CAVOK 22/15 Q1023 NOSIG
cycle: 4

Station Type Date Time Source
ZYTX TAF 2021/09/24 06:03 UTC NOAA

TAF ZYTX 240301Z 2406/2506 14004MPS 6000 NSC TX23/2406Z TN15/2421Z

Example: see airport list